Time,TemperatureF,DewpointF,PressureIn,WindDirection,WindDirectionDegrees,WindSpeedMPH,WindSpeedGustMPH,Humidity,HourlyPrecipIn,Conditions,Clouds,dailyrainin,SoftwareType,DateUTC
2013-06-10 00:04:00,61.7,60.0,29.75,ESE,112,0.0,8.0,94,0.00,,,0.00,Wunderground v.1.15,2013-06-10 05:04:00,
2013-06-10 00:09:00,61.4,60.0,29.75,ESE,111,0.0,8.0,95,0.00,,,0.00,Wunderground v.1.15,2013-06-10 05:09:00,
2013-06-10 00:16:00,61.3,59.9,29.75,ESE,112,0.0,8.0,95,0.00,,,0.00,Wunderground v.1.15,2013-06-10 05:16:00,
2013-06-10 00:22:00,61.0,59.6,29.75,ESE,111,0.0,8.0,95,0.00,,,0.00,Wunderground v.1.15,2013-06-10 05:22:00,
2013-06-10 00:28:00,60.7,59.3,29.76,ESE,112,0.0,8.0,95,0.00,,,0.00,Wunderground v.1.15,2013-06-10 05:28:00,
2013-06-10 00:34:00,60.4,59.0,29.76,ESE,112,0.0,8.0,95,0.00,,,0.00,Wunderground v.1.15,2013-06-10 05:34:00,
2013-06-10 00:39:00,60.1,58.7,29.75,ESE,111,0.0,8.0,95,0.00,,,0.00,Wunderground v.1.15,2013-06-10 05:39:00,
2013-06-10 00:46:00,59.8,58.7,29.75,ESE,112,0.0,8.0,96,0.00,,,0.00,Wunderground v.1.15,2013-06-10 05:46:00,
2013-06-10 00:52:00,59.7,58.6,29.75,ESE,112,0.0,8.0,96,0.00,,,0.00,Wunderground v.1.15,2013-06-10 05:52:00,
2013-06-10 00:58:00,59.6,58.5,29.75,ESE,112,0.0,8.0,96,0.00,,,0.00,Wunderground v.1.15,2013-06-10 05:58:00,
2013-06-10 01:04:00,59.5,58.4,29.76,ESE,111,0.0,8.0,96,0.00,,,0.00,Wunderground v.1.15,2013-06-10 06:04:00,
2013-06-10 01:09:00,59.6,58.7,29.76,ESE,112,0.0,8.0,97,0.00,,,0.00,Wunderground v.1.15,2013-06-10 06:09:00,
2013-06-10 01:16:00,60.0,59.1,29.76,ENE,71,0.0,8.0,97,0.00,,,0.00,Wunderground v.1.15,2013-06-10 06:16:00,
2013-06-10 01:21:00,60.2,59.3,29.76,ENE,71,0.0,8.0,97,0.00,,,0.00,Wunderground v.1.15,2013-06-10 06:21:00,
2013-06-10 01:28:00,60.6,60.0,29.76,East,79,0.0,8.0,98,0.00,,,0.00,Wunderground v.1.15,2013-06-10 06:28:00,
2013-06-10 01:33:00,60.7,59.8,29.75,ESE,115,0.0,8.0,97,0.00,,,0.00,Wunderground v.1.15,2013-06-10 06:33:00,
2013-06-10 01:40:00,60.8,59.9,29.75,ESE,107,0.0,8.0,97,0.00,,,0.00,Wunderground v.1.15,2013-06-10 06:40:00,
2013-06-10 01:46:00,60.9,60.0,29.75,ESE,119,0.0,8.0,97,0.00,,,0.00,Wunderground v.1.15,2013-06-10 06:46:00,
2013-06-10 01:52:00,60.9,60.3,29.76,NNE,25,0.0,8.0,98,0.00,,,0.00,Wunderground v.1.15,2013-06-10 06:52:00,
2013-06-10 01:58:00,60.9,60.3,29.76,NE,54,0.0,8.0,98,0.00,,,0.00,Wunderground v.1.15,2013-06-10 06:58:00,
2013-06-10 02:03:00,60.9,60.3,29.76,NE,49,0.0,8.0,98,0.00,,,0.00,Wunderground v.1.15,2013-06-10 07:03:00,
2013-06-10 02:10:00,60.9,60.3,29.75,ESE,120,0.0,8.0,98,0.00,,,0.00,Wunderground v.1.15,2013-06-10 07:10:00,
2013-06-10 02:16:00,60.9,60.3,29.76,ENE,60,0.0,8.0,98,0.00,,,0.00,Wunderground v.1.15,2013-06-10 07:16:00,
2013-06-10 02:22:00,60.9,60.3,29.76,ESE,106,0.0,8.0,98,0.00,,,0.00,Wunderground v.1.15,2013-06-10 07:22:00,
2013-06-10 02:28:00,60.9,60.3,29.76,East,91,0.0,8.0,98,0.00,,,0.00,Wunderground v.1.15,2013-06-10 07:28:00,
2013-06-10 02:34:00,60.8,60.2,29.76,NE,49,0.0,8.0,98,0.00,,,0.00,Wunderground v.1.15,2013-06-10 07:34:00,
2013-06-10 02:39:00,60.8,60.2,29.76,ENE,65,1.0,1.0,98,0.00,,,0.00,Wunderground v.1.15,2013-06-10 07:39:00,
2013-06-10 02:46:00,60.7,60.1,29.76,NE,49,0.0,8.0,98,0.00,,,0.00,Wunderground v.1.15,2013-06-10 07:46:00,
2013-06-10 02:51:00,60.7,60.1,29.76,NE,39,0.0,8.0,98,0.00,,,0.00,Wunderground v.1.15,2013-06-10 07:51:00,
2013-06-10 02:58:00,60.7,60.1,29.75,ESE,115,0.0,8.0,98,0.00,,,0.00,Wunderground v.1.15,2013-06-10 07:58:00,
2013-06-10 03:03:00,60.7,60.1,29.76,ESE,115,0.0,8.0,98,0.00,,,0.00,Wunderground v.1.15,2013-06-10 08:03:00,
2013-06-10 03:10:00,60.8,60.2,29.76,ESE,121,0.0,8.0,98,0.00,,,0.00,Wunderground v.1.15,2013-06-10 08:10:00,
2013-06-10 03:16:00,60.8,60.2,29.76,ESE,120,1.0,8.0,98,0.00,,,0.00,Wunderground v.1.15,2013-06-10 08:16:00,
2013-06-10 03:22:00,60.8,60.2,29.76,East,88,0.0,8.0,98,0.00,,,0.00,Wunderground v.1.15,2013-06-10 08:22:00,
2013-06-10 03:28:00,60.8,60.2,29.76,ENE,63,0.0,8.0,98,0.00,,,0.00,Wunderground v.1.15,2013-06-10 08:28:00,
2013-06-10 03:33:00,60.7,60.1,29.76,NE,34,0.0,8.0,98,0.00,,,0.00,Wunderground v.1.15,2013-06-10 08:33:00,
2013-06-10 03:40:00,60.7,60.1,29.76,ESE,120,1.0,8.0,98,0.00,,,0.00,Wunderground v.1.15,2013-06-10 08:40:00,
2013-06-10 03:46:00,60.7,60.1,29.76,ESE,107,1.0,8.0,98,0.00,,,0.00,Wunderground v.1.15,2013-06-10 08:46:00,
2013-06-10 03:52:00,60.7,60.1,29.76,East,91,1.0,8.0,98,0.00,,,0.00,Wunderground v.1.15,2013-06-10 08:52:00,
2013-06-10 03:58:00,60.6,60.0,29.76,ESE,110,1.0,8.0,98,0.00,,,0.00,Wunderground v.1.15,2013-06-10 08:58:00,
2013-06-10 04:04:00,60.6,60.0,29.76,East,93,0.0,8.0,98,0.00,,,0.00,Wunderground v.1.15,2013-06-10 09:04:00,
2013-06-10 04:10:00,60.6,60.0,29.76,East,86,1.0,1.0,98,0.00,,,0.00,Wunderground v.1.15,2013-06-10 09:10:00,
2013-06-10 04:15:00,60.6,60.0,29.76,ENE,63,1.0,8.0,98,0.00,,,0.00,Wunderground v.1.15,2013-06-10 09:15:00,
2013-06-10 04:22:00,60.5,59.9,29.76,East,82,0.0,8.0,98,0.00,,,0.00,Wunderground v.1.15,2013-06-10 09:22:00,
2013-06-10 04:27:00,60.5,59.9,29.76,NE,49,0.0,8.0,98,0.00,,,0.00,Wunderground v.1.15,2013-06-10 09:27:00,
2013-06-10 04:34:00,60.4,59.8,29.76,WNW,300,0.0,8.0,98,0.00,,,0.00,Wunderground v.1.15,2013-06-10 09:34:00,
2013-06-10 04:39:00,60.3,59.7,29.77,ENE,57,0.0,8.0,98,0.00,,,0.00,Wunderground v.1.15,2013-06-10 09:39:00,
2013-06-10 04:46:00,60.3,59.7,29.77,ENE,57,0.0,8.0,98,0.00,,,0.00,Wunderground v.1.15,2013-06-10 09:46:00,
2013-06-10 04:52:00,60.3,59.7,29.77,ENE,57,0.0,8.0,98,0.00,,,0.00,Wunderground v.1.15,2013-06-10 09:52:00,
2013-06-10 04:58:00,60.3,59.7,29.77,ENE,57,0.0,8.0,98,0.00,,,0.00,Wunderground v.1.15,2013-06-10 09:58:00,
2013-06-10 05:04:00,60.2,59.6,29.77,ENE,57,0.0,8.0,98,0.00,,,0.00,Wunderground v.1.15,2013-06-10 10:04:00,
2013-06-10 05:09:00,60.3,59.7,29.77,ENE,57,0.0,8.0,98,0.00,,,0.00,Wunderground v.1.15,2013-06-10 10:09:00,
2013-06-10 05:16:00,60.3,59.7,29.77,ESE,110,0.0,8.0,98,0.00,,,0.00,Wunderground v.1.15,2013-06-10 10:16:00,
2013-06-10 05:21:00,60.3,59.7,29.77,ESE,110,0.0,8.0,98,0.00,,,0.00,Wunderground v.1.15,2013-06-10 10:21:00,
2013-06-10 05:28:00,60.2,59.6,29.77,ENE,77,0.0,8.0,98,0.00,,,0.00,Wunderground v.1.15,2013-06-10 10:28:00,
2013-06-10 05:33:00,60.3,59.7,29.78,East,84,0.0,8.0,98,0.00,,,0.00,Wunderground v.1.15,2013-06-10 10:33:00,
2013-06-10 05:40:00,60.3,59.7,29.78,East,84,0.0,8.0,98,0.00,,,0.00,Wunderground v.1.15,2013-06-10 10:40:00,
2013-06-10 05:46:00,60.3,60.0,29.78,NE,44,0.0,8.0,99,0.00,,,0.00,Wunderground v.1.15,2013-06-10 10:46:00,
2013-06-10 05:52:00,60.3,59.7,29.78,NNE,29,0.0,8.0,98,0.00,,,0.00,Wunderground v.1.15,2013-06-10 10:52:00,
2013-06-10 05:58:00,60.2,59.6,29.78,ENE,67,0.0,8.0,98,0.00,,,0.00,Wunderground v.1.15,2013-06-10 10:58:00,
2013-06-10 06:04:00,60.2,59.6,29.78,NNE,32,0.0,8.0,98,0.00,,,0.00,Wunderground v.1.15,2013-06-10 11:04:00,
2013-06-10 06:10:00,60.2,59.6,29.78,NE,43,0.0,8.0,98,0.00,,,0.00,Wunderground v.1.15,2013-06-10 11:10:00,
2013-06-10 06:15:00,60.2,59.6,29.78,SE,127,0.0,8.0,98,0.00,,,0.00,Wunderground v.1.15,2013-06-10 11:15:00,
2013-06-10 06:22:00,60.2,59.6,29.78,SE,127,0.0,8.0,98,0.00,,,0.00,Wunderground v.1.15,2013-06-10 11:22:00,
2013-06-10 06:27:00,60.2,59.6,29.79,NE,55,0.0,8.0,98,0.00,,,0.00,Wunderground v.1.15,2013-06-10 11:27:00,
2013-06-10 06:34:00,60.2,59.6,29.79,NE,56,0.0,8.0,98,0.00,,,0.00,Wunderground v.1.15,2013-06-10 11:34:00,
2013-06-10 06:40:00,60.4,59.8,29.79,NE,56,0.0,8.0,98,0.00,,,0.00,Wunderground v.1.15,2013-06-10 11:40:00,
2013-06-10 06:46:00,60.5,59.9,29.80,NE,56,0.0,8.0,98,0.00,,,0.00,Wunderground v.1.15,2013-06-10 11:46:00,
2013-06-10 06:52:00,60.5,59.9,29.80,NE,56,0.0,8.0,98,0.00,,,0.00,Wunderground v.1.15,2013-06-10 11:52:00,
2013-06-10 06:57:00,60.6,60.0,29.80,NE,56,0.0,8.0,98,0.00,,,0.00,Wunderground v.1.15,2013-06-10 11:57:00,
2013-06-10 07:04:00,60.6,60.0,29.80,WNW,302,0.0,8.0,98,0.00,,,0.00,Wunderground v.1.15,2013-06-10 12:04:00,
2013-06-10 07:10:00,60.7,60.1,29.80,West,271,0.0,8.0,98,0.00,,,0.00,Wunderground v.1.15,2013-06-10 12:10:00,
2013-06-10 07:16:00,60.7,59.8,29.80,West,276,0.0,8.0,97,0.00,,,0.00,Wunderground v.1.15,2013-06-10 12:16:00,
2013-06-10 07:22:00,60.8,59.9,29.80,West,262,0.0,8.0,97,0.00,,,0.00,Wunderground v.1.15,2013-06-10 12:22:00,
2013-06-10 07:27:00,60.9,60.0,29.80,WSW,248,0.0,8.0,97,0.00,,,0.00,Wunderground v.1.15,2013-06-10 12:27:00,
2013-06-10 07:34:00,61.0,60.1,29.80,West,259,0.0,8.0,97,0.00,,,0.00,Wunderground v.1.15,2013-06-10 12:34:00,
2013-06-10 07:39:00,61.1,60.0,29.80,West,274,1.0,1.0,96,0.00,,,0.00,Wunderground v.1.15,2013-06-10 12:39:00,
2013-06-10 07:46:00,61.2,60.1,29.80,SW,225,1.0,8.0,96,0.00,,,0.00,Wunderground v.1.15,2013-06-10 12:46:00,
2013-06-10 07:51:00,61.4,60.2,29.80,SW,225,0.0,8.0,96,0.00,,,0.00,Wunderground v.1.15,2013-06-10 12:51:00,
2013-06-10 07:58:00,61.5,60.3,29.80,WSW,250,0.0,8.0,96,0.00,,,0.00,Wunderground v.1.15,2013-06-10 12:58:00,
2013-06-10 08:04:00,61.6,60.2,29.80,West,278,0.0,8.0,95,0.00,,,0.00,Wunderground v.1.15,2013-06-10 13:04:00,
2013-06-10 08:10:00,61.8,60.4,29.81,West,264,0.0,8.0,95,0.00,,,0.00,Wunderground v.1.15,2013-06-10 13:10:00,
2013-06-10 08:16:00,61.8,60.4,29.81,NE,41,1.0,8.0,95,0.00,,,0.00,Wunderground v.1.15,2013-06-10 13:16:00,
2013-06-10 08:21:00,61.9,60.2,29.81,West,267,1.0,8.0,94,0.00,,,0.00,Wunderground v.1.15,2013-06-10 13:21:00,
2013-06-10 08:28:00,62.0,60.3,29.82,WSW,250,1.0,8.0,94,0.00,,,0.00,Wunderground v.1.15,2013-06-10 13:28:00,
2013-06-10 08:34:00,62.3,60.6,29.82,NNE,32,0.0,8.0,94,0.00,,,0.00,Wunderground v.1.15,2013-06-10 13:34:00,
2013-06-10 08:40:00,62.5,60.4,29.82,WNW,294,0.0,8.0,93,0.00,,,0.00,Wunderground v.1.15,2013-06-10 13:40:00,
2013-06-10 08:46:00,62.5,60.4,29.82,ENE,70,1.0,8.0,93,0.00,,,0.00,Wunderground v.1.15,2013-06-10 13:46:00,
2013-06-10 08:52:00,62.5,60.1,29.82,North,1,1.0,8.0,92,0.00,,,0.00,Wunderground v.1.15,2013-06-10 13:52:00,
2013-06-10 08:58:00,62.6,60.2,29.82,NE,51,1.0,8.0,92,0.00,,,0.00,Wunderground v.1.15,2013-06-10 13:58:00,
2013-06-10 09:04:00,62.7,60.3,29.82,West,264,1.0,8.0,92,0.00,,,0.00,Wunderground v.1.15,2013-06-10 14:04:00,
2013-06-10 09:10:00,62.9,60.2,29.82,ENE,68,1.0,8.0,91,0.00,,,0.00,Wunderground v.1.15,2013-06-10 14:10:00,
2013-06-10 09:16:00,63.0,60.3,29.82,NE,37,1.0,8.0,91,0.00,,,0.00,Wunderground v.1.15,2013-06-10 14:16:00,
2013-06-10 09:22:00,62.9,60.2,29.82,WNW,302,1.0,8.0,91,0.00,,,0.00,Wunderground v.1.15,2013-06-10 14:22:00,
2013-06-10 09:27:00,63.2,60.5,29.82,WNW,287,0.0,8.0,91,0.00,,,0.00,Wunderground v.1.15,2013-06-10 14:27:00,
2013-06-10 09:34:00,63.4,60.4,29.81,ENE,74,0.0,8.0,90,0.00,,,0.00,Wunderground v.1.15,2013-06-10 14:34:00,
2013-06-10 09:40:00,63.7,60.7,29.82,West,280,0.0,8.0,90,0.00,,,0.00,Wunderground v.1.15,2013-06-10 14:40:00,
2013-06-10 09:46:00,64.0,60.7,29.83,ENE,58,0.0,8.0,89,0.00,,,0.00,Wunderground v.1.15,2013-06-10 14:46:00,
2013-06-10 09:52:00,64.2,60.9,29.83,NE,51,0.0,8.0,89,0.00,,,0.00,Wunderground v.1.15,2013-06-10 14:52:00,
2013-06-10 09:57:00,64.0,60.7,29.83,NNE,22,1.0,8.0,89,0.00,,,0.00,Wunderground v.1.15,2013-06-10 14:57:00,
2013-06-10 10:04:00,64.3,60.7,29.83,ENE,74,0.0,8.0,88,0.00,,,0.00,Wunderground v.1.15,2013-06-10 15:04:00,
2013-06-10 10:10:00,64.3,61.0,29.84,NE,53,1.0,8.0,89,0.00,,,0.00,Wunderground v.1.15,2013-06-10 15:10:00,
2013-06-10 10:16:00,64.5,60.9,29.84,NW,319,0.0,8.0,88,0.00,,,0.00,Wunderground v.1.15,2013-06-10 15:16:00,
2013-06-10 10:21:00,64.4,60.8,29.84,ENE,58,1.0,8.0,88,0.00,,,0.00,Wunderground v.1.15,2013-06-10 15:21:00,
2013-06-10 10:28:00,64.2,60.9,29.84,NE,47,2.0,8.0,89,0.00,,,0.00,Wunderground v.1.15,2013-06-10 15:28:00,
2013-06-10 10:34:00,64.5,60.9,29.84,West,270,1.0,8.0,88,0.00,,,0.00,Wunderground v.1.15,2013-06-10 15:34:00,
2013-06-10 10:40:00,64.8,60.8,29.85,NNW,329,0.0,8.0,87,0.00,,,0.00,Wunderground v.1.15,2013-06-10 15:40:00,
2013-06-10 10:46:00,64.9,60.9,29.85,East,82,0.0,8.0,87,0.00,,,0.00,Wunderground v.1.15,2013-06-10 15:46:00,
2013-06-10 10:51:00,65.1,61.1,29.85,North,11,0.0,8.0,87,0.00,,,0.00,Wunderground v.1.15,2013-06-10 15:51:00,
2013-06-10 10:58:00,65.3,61.0,29.85,WNW,285,0.0,8.0,86,0.00,,,0.00,Wunderground v.1.15,2013-06-10 15:58:00,
2013-06-10 11:03:00,65.7,61.4,29.85,WSW,240,0.0,8.0,86,0.00,,,0.00,Wunderground v.1.15,2013-06-10 16:03:00,
2013-06-10 11:10:00,65.8,61.2,29.85,WSW,242,1.0,1.0,85,0.00,,,0.00,Wunderground v.1.15,2013-06-10 16:10:00,
2013-06-10 11:15:00,66.0,61.4,29.85,West,268,0.0,8.0,85,0.00,,,0.00,Wunderground v.1.15,2013-06-10 16:15:00,
2013-06-10 11:22:00,66.0,61.0,29.85,West,277,1.0,8.0,84,0.00,,,0.00,Wunderground v.1.15,2013-06-10 16:22:00,
2013-06-10 11:28:00,65.9,61.3,29.85,NW,309,1.0,8.0,85,0.00,,,0.00,Wunderground v.1.15,2013-06-10 16:28:00,
2013-06-10 11:34:00,66.4,61.8,29.85,West,274,1.0,8.0,85,0.00,,,0.00,Wunderground v.1.15,2013-06-10 16:34:00,
2013-06-10 11:40:00,66.7,61.7,29.86,NNW,329,1.0,8.0,84,0.00,,,0.00,Wunderground v.1.15,2013-06-10 16:40:00,
2013-06-10 11:45:00,67.2,62.2,29.86,North,6,0.0,8.0,84,0.00,,,0.00,Wunderground v.1.15,2013-06-10 16:45:00,
2013-06-10 11:52:00,67.1,61.8,29.86,West,264,1.0,8.0,83,0.00,,,0.00,Wunderground v.1.15,2013-06-10 16:52:00,
2013-06-10 11:58:00,67.5,61.8,29.86,WNW,302,2.0,8.0,82,0.00,,,0.00,Wunderground v.1.15,2013-06-10 16:58:00,
2013-06-10 12:04:00,67.4,61.7,29.86,West,268,3.0,8.0,82,0.00,,,0.00,Wunderground v.1.15,2013-06-10 17:04:00,
2013-06-10 12:10:00,67.6,62.3,29.86,NW,322,2.0,2.0,83,0.00,,,0.00,Wunderground v.1.15,2013-06-10 17:10:00,
2013-06-10 12:15:00,67.9,62.5,29.86,WNW,285,1.0,8.0,83,0.00,,,0.00,Wunderground v.1.15,2013-06-10 17:15:00,
2013-06-10 12:22:00,67.6,61.6,29.85,WSW,248,2.0,8.0,81,0.00,,,0.00,Wunderground v.1.15,2013-06-10 17:22:00,
2013-06-10 12:27:00,67.9,61.9,29.85,SSW,205,2.0,8.0,81,0.00,,,0.00,Wunderground v.1.15,2013-06-10 17:27:00,
2013-06-10 12:34:00,68.0,61.2,29.85,SW,218,2.0,8.0,79,0.00,,,0.00,Wunderground v.1.15,2013-06-10 17:34:00,
2013-06-10 12:39:00,68.0,61.6,29.85,West,260,2.0,2.0,80,0.00,,,0.00,Wunderground v.1.15,2013-06-10 17:39:00,
2013-06-10 12:46:00,67.9,61.1,29.85,North,11,3.0,8.0,79,0.00,,,0.00,Wunderground v.1.15,2013-06-10 17:46:00,
2013-06-10 12:52:00,68.3,61.5,29.86,WNW,294,2.0,3.0,79,0.00,,,0.00,Wunderground v.1.15,2013-06-10 17:52:00,
2013-06-10 12:58:00,68.4,62.0,29.85,WSW,240,2.0,8.0,80,0.00,,,0.00,Wunderground v.1.15,2013-06-10 17:58:00,
2013-06-10 13:04:00,68.8,61.7,29.86,WSW,257,2.0,8.0,78,0.00,,,0.00,Wunderground v.1.15,2013-06-10 18:04:00,
2013-06-10 13:09:00,68.4,61.6,29.86,WNW,299,2.0,8.0,79,0.00,,,0.00,Wunderground v.1.15,2013-06-10 18:09:00,
2013-06-10 13:16:00,68.1,61.3,29.85,NW,305,3.0,8.0,79,0.00,,,0.00,Wunderground v.1.15,2013-06-10 18:16:00,
2013-06-10 13:21:00,68.2,61.4,29.85,NNE,23,2.0,8.0,79,0.00,,,0.00,Wunderground v.1.15,2013-06-10 18:21:00,
2013-06-10 13:28:00,68.4,61.6,29.86,NE,53,1.0,8.0,79,0.00,,,0.00,Wunderground v.1.15,2013-06-10 18:28:00,
2013-06-10 13:34:00,68.6,61.8,29.86,NNW,336,1.0,8.0,79,0.00,,,0.00,Wunderground v.1.15,2013-06-10 18:34:00,
2013-06-10 13:40:00,69.0,62.2,29.86,WNW,283,1.0,1.0,79,0.00,,,0.00,Wunderground v.1.15,2013-06-10 18:40:00,
2013-06-10 13:46:00,69.5,62.3,29.86,WNW,293,0.0,8.0,78,0.00,,,0.00,Wunderground v.1.15,2013-06-10 18:46:00,
2013-06-10 13:51:00,69.6,61.7,29.86,West,269,1.0,8.0,76,0.00,,,0.00,Wunderground v.1.15,2013-06-10 18:51:00,
2013-06-10 13:58:00,69.1,61.9,29.86,WNW,301,2.0,8.0,78,0.00,,,0.00,Wunderground v.1.15,2013-06-10 18:58:00,
2013-06-10 14:03:00,69.3,61.4,29.85,SW,232,2.0,8.0,76,0.00,,,0.00,Wunderground v.1.15,2013-06-10 19:03:00,
2013-06-10 14:10:00,69.7,61.8,29.85,SW,232,2.0,2.0,76,0.00,,,0.00,Wunderground v.1.15,2013-06-10 19:10:00,
2013-06-10 14:15:00,70.0,61.7,29.85,West,278,2.0,8.0,75,0.00,,,0.00,Wunderground v.1.15,2013-06-10 19:15:00,
2013-06-10 14:22:00,70.7,62.0,29.85,NW,305,2.0,8.0,74,0.00,,,0.00,Wunderground v.1.15,2013-06-10 19:22:00,
2013-06-10 14:28:00,71.2,61.7,29.85,SW,214,1.0,8.0,72,0.00,,,0.00,Wunderground v.1.15,2013-06-10 19:28:00,
2013-06-10 14:33:00,71.8,61.9,29.85,WNW,296,2.0,8.0,71,0.00,,,0.00,Wunderground v.1.15,2013-06-10 19:33:00,
2013-06-10 14:40:00,71.6,62.1,29.84,NNE,20,2.0,2.0,72,0.00,,,0.00,Wunderground v.1.15,2013-06-10 19:40:00,
2013-06-10 14:46:00,72.7,63.1,29.84,SW,236,1.0,8.0,72,0.00,,,0.00,Wunderground v.1.15,2013-06-10 19:46:00,
2013-06-10 14:52:00,72.5,62.2,29.85,WNW,293,2.0,8.0,70,0.00,,,0.00,Wunderground v.1.15,2013-06-10 19:52:00,
2013-06-10 14:57:00,72.6,62.7,29.84,West,281,2.0,8.0,71,0.00,,,0.00,Wunderground v.1.15,2013-06-10 19:57:00,
2013-06-10 15:04:00,72.7,62.3,29.84,SW,224,2.0,8.0,70,0.00,,,0.00,Wunderground v.1.15,2013-06-10 20:04:00,
2013-06-10 15:09:00,73.7,63.3,29.84,WSW,258,2.0,8.0,70,0.00,,,0.00,Wunderground v.1.15,2013-06-10 20:09:00,
2013-06-10 15:16:00,73.9,62.2,29.84,West,262,2.0,8.0,67,0.00,,,0.00,Wunderground v.1.15,2013-06-10 20:16:00,
2013-06-10 15:22:00,74.2,63.4,29.84,West,270,1.0,8.0,69,0.00,,,0.00,Wunderground v.1.15,2013-06-10 20:22:00,
2013-06-10 15:28:00,74.6,62.5,29.84,WSW,252,1.0,8.0,66,0.00,,,0.00,Wunderground v.1.15,2013-06-10 20:28:00,
2013-06-10 15:34:00,74.2,62.5,29.84,West,269,2.0,8.0,67,0.00,,,0.00,Wunderground v.1.15,2013-06-10 20:34:00,
2013-06-10 15:40:00,74.2,63.0,29.84,WSW,248,1.0,8.0,68,0.00,,,0.00,Wunderground v.1.15,2013-06-10 20:40:00,
2013-06-10 15:46:00,74.7,63.0,29.84,NW,308,2.0,8.0,67,0.00,,,0.00,Wunderground v.1.15,2013-06-10 20:46:00,
2013-06-10 15:52:00,75.1,63.4,29.83,West,278,2.0,8.0,67,0.00,,,0.00,Wunderground v.1.15,2013-06-10 20:52:00,
2013-06-10 15:58:00,75.0,63.3,29.83,South,181,2.0,8.0,67,0.00,,,0.00,Wunderground v.1.15,2013-06-10 20:58:00,
2013-06-10 16:04:00,75.8,63.2,29.84,WSW,253,2.0,8.0,65,0.00,,,0.00,Wunderground v.1.15,2013-06-10 21:04:00,
2013-06-10 16:09:00,75.7,63.1,29.84,WSW,238,2.0,2.0,65,0.00,,,0.00,Wunderground v.1.15,2013-06-10 21:09:00,
2013-06-10 16:16:00,75.6,63.9,29.83,WNW,294,2.0,8.0,67,0.00,,,0.00,Wunderground v.1.15,2013-06-10 21:16:00,
2013-06-10 16:21:00,75.6,63.9,29.83,ENE,60,2.0,8.0,67,0.00,,,0.00,Wunderground v.1.15,2013-06-10 21:21:00,
2013-06-10 16:28:00,75.8,63.2,29.83,WSW,238,1.0,8.0,65,0.00,,,0.00,Wunderground v.1.15,2013-06-10 21:28:00,
2013-06-10 16:33:00,76.2,64.0,29.83,WNW,290,2.0,8.0,66,0.00,,,0.00,Wunderground v.1.15,2013-06-10 21:33:00,
2013-06-10 16:39:00,76.4,63.3,29.83,WSW,250,2.0,8.0,64,0.00,,,0.00,Wunderground v.1.15,2013-06-10 21:39:00,
2013-06-10 16:46:00,76.6,62.6,29.83,WSW,253,2.0,8.0,62,0.00,,,0.00,Wunderground v.1.15,2013-06-10 21:46:00,
2013-06-10 16:51:00,77.7,63.6,29.83,SW,231,1.0,8.0,62,0.00,,,0.00,Wunderground v.1.15,2013-06-10 21:51:00,
2013-06-10 16:58:00,78.0,63.0,29.83,WNW,300,1.0,8.0,60,0.00,,,0.00,Wunderground v.1.15,2013-06-10 21:58:00,
2013-06-10 17:03:00,77.6,63.5,29.83,SW,232,1.0,8.0,62,0.00,,,0.00,Wunderground v.1.15,2013-06-10 22:03:00,
2013-06-10 17:10:00,76.9,63.3,29.83,WNW,288,2.0,2.0,63,0.00,,,0.00,Wunderground v.1.15,2013-06-10 22:10:00,
2013-06-10 17:16:00,77.0,63.4,29.83,West,260,1.0,8.0,63,0.00,,,0.00,Wunderground v.1.15,2013-06-10 22:16:00,
2013-06-10 17:22:00,77.7,63.2,29.83,West,269,1.0,8.0,61,0.00,,,0.00,Wunderground v.1.15,2013-06-10 22:22:00,
2013-06-10 17:28:00,76.9,63.3,29.83,SW,232,2.0,8.0,63,0.00,,,0.00,Wunderground v.1.15,2013-06-10 22:28:00,
2013-06-10 17:33:00,76.8,63.2,29.83,North,359,3.0,8.0,63,0.00,,,0.00,Wunderground v.1.15,2013-06-10 22:33:00,
2013-06-10 17:40:00,76.8,63.2,29.83,SW,233,1.0,8.0,63,0.00,,,0.00,Wunderground v.1.15,2013-06-10 22:40:00,
2013-06-10 17:46:00,77.5,64.4,29.83,North,8,1.0,8.0,64,0.00,,,0.00,Wunderground v.1.15,2013-06-10 22:46:00,
2013-06-10 17:52:00,77.8,64.2,29.82,WNW,289,1.0,8.0,63,0.00,,,0.00,Wunderground v.1.15,2013-06-10 22:52:00,
2013-06-10 17:58:00,77.7,63.2,29.83,NNE,23,1.0,8.0,61,0.00,,,0.00,Wunderground v.1.15,2013-06-10 22:58:00,
2013-06-10 18:03:00,77.8,62.8,29.82,WSW,248,1.0,8.0,60,0.00,,,0.00,Wunderground v.1.15,2013-06-10 23:03:00,
2013-06-10 18:10:00,77.4,63.4,29.83,WSW,245,1.0,1.0,62,0.00,,,0.00,Wunderground v.1.15,2013-06-10 23:10:00,
2013-06-10 18:15:00,76.9,62.9,29.82,WSW,255,1.0,8.0,62,0.00,,,0.00,Wunderground v.1.15,2013-06-10 23:15:00,
2013-06-10 18:22:00,76.3,62.8,29.82,WNW,290,1.0,8.0,63,0.00,,,0.00,Wunderground v.1.15,2013-06-10 23:22:00,
2013-06-10 18:27:00,76.8,62.8,29.82,WSW,238,1.0,8.0,62,0.00,,,0.00,Wunderground v.1.15,2013-06-10 23:27:00,
2013-06-10 18:34:00,77.1,63.1,29.82,SSW,197,1.0,8.0,62,0.00,,,0.00,Wunderground v.1.15,2013-06-10 23:34:00,
2013-06-10 18:39:00,77.7,63.2,29.82,West,267,1.0,1.0,61,0.00,,,0.00,Wunderground v.1.15,2013-06-10 23:39:00,
2013-06-10 18:46:00,78.6,63.6,29.82,WSW,246,0.0,8.0,60,0.00,,,0.00,Wunderground v.1.15,2013-06-10 23:46:00,
2013-06-10 18:52:00,79.0,63.9,29.82,WSW,238,0.0,8.0,60,0.00,,,0.00,Wunderground v.1.15,2013-06-10 23:52:00,
2013-06-10 18:58:00,77.9,62.9,29.82,WSW,242,0.0,8.0,60,0.00,,,0.00,Wunderground v.1.15,2013-06-10 23:58:00,
2013-06-10 19:04:00,76.9,63.3,29.82,West,262,0.0,8.0,63,0.00,,,0.00,Wunderground v.1.15,2013-06-11 00:04:00,
2013-06-10 19:09:00,76.1,63.0,29.83,West,261,1.0,1.0,64,0.00,,,0.00,Wunderground v.1.15,2013-06-11 00:09:00,
2013-06-10 19:16:00,76.2,64.0,29.83,West,260,0.0,8.0,66,0.00,,,0.00,Wunderground v.1.15,2013-06-11 00:16:00,
2013-06-10 19:21:00,76.9,63.8,29.83,West,260,0.0,8.0,64,0.00,,,0.00,Wunderground v.1.15,2013-06-11 00:21:00,
2013-06-10 19:28:00,77.9,63.8,29.83,West,260,0.0,8.0,62,0.00,,,0.00,Wunderground v.1.15,2013-06-11 00:28:00,
2013-06-10 19:33:00,77.5,63.0,29.83,SW,226,0.0,8.0,61,0.00,,,0.00,Wunderground v.1.15,2013-06-11 00:33:00,
2013-06-10 19:40:00,76.3,62.8,29.83,SW,224,1.0,8.0,63,0.00,,,0.00,Wunderground v.1.15,2013-06-11 00:40:00,
2013-06-10 19:46:00,75.9,62.8,29.83,SW,215,1.0,8.0,64,0.00,,,0.00,Wunderground v.1.15,2013-06-11 00:46:00,
2013-06-10 19:52:00,76.2,63.1,29.83,West,260,0.0,8.0,64,0.00,,,0.00,Wunderground v.1.15,2013-06-11 00:52:00,
2013-06-10 19:58:00,76.4,62.9,29.83,WSW,246,0.0,8.0,63,0.00,,,0.00,Wunderground v.1.15,2013-06-11 00:58:00,
2013-06-10 20:04:00,75.9,62.8,29.83,SW,225,0.0,8.0,64,0.00,,,0.00,Wunderground v.1.15,2013-06-11 01:04:00,
2013-06-10 20:09:00,75.5,62.9,29.83,WSW,245,0.0,8.0,65,0.00,,,0.00,Wunderground v.1.15,2013-06-11 01:09:00,
2013-06-10 20:16:00,75.1,63.0,29.82,WSW,245,0.0,8.0,66,0.00,,,0.00,Wunderground v.1.15,2013-06-11 01:16:00,
2013-06-10 20:22:00,74.4,63.1,29.82,WSW,245,0.0,8.0,68,0.00,,,0.00,Wunderground v.1.15,2013-06-11 01:22:00,
2013-06-10 20:28:00,73.5,63.1,29.82,WSW,245,0.0,8.0,70,0.00,,,0.00,Wunderground v.1.15,2013-06-11 01:28:00,
2013-06-10 20:34:00,72.7,63.1,29.82,WSW,245,0.0,8.0,72,0.00,,,0.00,Wunderground v.1.15,2013-06-11 01:34:00,
2013-06-10 20:39:00,72.2,63.1,29.82,WSW,245,0.0,8.0,73,0.00,,,0.00,Wunderground v.1.15,2013-06-11 01:39:00,
2013-06-10 20:46:00,71.6,62.9,29.83,WSW,245,0.0,8.0,74,0.00,,,0.00,Wunderground v.1.15,2013-06-11 01:46:00,
2013-06-10 20:52:00,71.1,62.8,29.83,WSW,245,0.0,8.0,75,0.00,,,0.00,Wunderground v.1.15,2013-06-11 01:52:00,
2013-06-10 20:58:00,70.7,62.8,29.83,WSW,245,0.0,8.0,76,0.00,,,0.00,Wunderground v.1.15,2013-06-11 01:58:00,
2013-06-10 21:04:00,70.2,62.6,29.83,WSW,245,0.0,8.0,77,0.00,,,0.00,Wunderground v.1.15,2013-06-11 02:04:00,
2013-06-10 21:09:00,69.8,62.6,29.83,WSW,245,0.0,8.0,78,0.00,,,0.00,Wunderground v.1.15,2013-06-11 02:09:00,
2013-06-10 21:16:00,69.3,62.1,29.83,WSW,245,0.0,8.0,78,0.00,,,0.00,Wunderground v.1.15,2013-06-11 02:16:00,
2013-06-10 21:21:00,68.9,62.1,29.83,WSW,245,0.0,8.0,79,0.00,,,0.00,Wunderground v.1.15,2013-06-11 02:21:00,
2013-06-10 21:28:00,68.5,62.1,29.83,WSW,245,0.0,8.0,80,0.00,,,0.00,Wunderground v.1.15,2013-06-11 02:28:00,
2013-06-10 21:33:00,68.2,62.1,29.83,WSW,245,0.0,8.0,81,0.00,,,0.00,Wunderground v.1.15,2013-06-11 02:33:00,
2013-06-10 21:40:00,67.8,62.1,29.84,WSW,245,0.0,8.0,82,0.00,,,0.00,Wunderground v.1.15,2013-06-11 02:40:00,
2013-06-10 21:46:00,67.6,62.3,29.84,WSW,245,0.0,8.0,83,0.00,,,0.00,Wunderground v.1.15,2013-06-11 02:46:00,
2013-06-10 21:52:00,67.5,62.2,29.84,WSW,245,0.0,8.0,83,0.00,,,0.00,Wunderground v.1.15,2013-06-11 02:52:00,
2013-06-10 21:58:00,67.2,61.9,29.84,WSW,245,0.0,8.0,83,0.00,,,0.00,Wunderground v.1.15,2013-06-11 02:58:00,
2013-06-10 22:04:00,66.9,61.9,29.84,WSW,245,0.0,8.0,84,0.00,,,0.00,Wunderground v.1.15,2013-06-11 03:04:00,
2013-06-10 22:09:00,66.4,61.8,29.84,WSW,245,0.0,8.0,85,0.00,,,0.00,Wunderground v.1.15,2013-06-11 03:09:00,
2013-06-10 22:16:00,66.0,61.7,29.84,WSW,245,0.0,8.0,86,0.00,,,0.00,Wunderground v.1.15,2013-06-11 03:16:00,
2013-06-10 22:22:00,65.6,61.6,29.84,WSW,245,0.0,8.0,87,0.00,,,0.00,Wunderground v.1.15,2013-06-11 03:22:00,
2013-06-10 22:28:00,65.4,61.8,29.84,WSW,245,0.0,8.0,88,0.00,,,0.00,Wunderground v.1.15,2013-06-11 03:28:00,
2013-06-10 22:34:00,65.1,61.8,29.85,WSW,245,0.0,8.0,89,0.00,,,0.00,Wunderground v.1.15,2013-06-11 03:34:00,
2013-06-10 22:39:00,64.9,61.6,29.85,WSW,245,0.0,8.0,89,0.00,,,0.00,Wunderground v.1.15,2013-06-11 03:39:00,
2013-06-10 22:46:00,64.6,61.6,29.85,WSW,245,0.0,8.0,90,0.00,,,0.00,Wunderground v.1.15,2013-06-11 03:46:00,
2013-06-10 22:51:00,64.5,61.5,29.85,WSW,245,0.0,8.0,90,0.00,,,0.00,Wunderground v.1.15,2013-06-11 03:51:00,
2013-06-10 22:58:00,64.3,61.3,29.85,WSW,245,0.0,8.0,90,0.00,,,0.00,Wunderground v.1.15,2013-06-11 03:58:00,
2013-06-10 23:02:00,64.3,61.3,29.85,WSW,245,0.0,8.0,90,0.00,,,0.00,Wunderground v.1.15,2013-06-11 04:02:00,
2013-06-10 23:06:00,64.2,61.5,29.85,WSW,245,0.0,8.0,91,0.00,,,0.00,Wunderground v.1.15,2013-06-11 04:06:00,
2013-06-10 23:08:00,64.2,61.5,29.85,WSW,245,0.0,8.0,91,0.00,,,0.00,Wunderground v.1.15,2013-06-11 04:08:00,
2013-06-10 23:12:00,64.2,61.2,29.85,WSW,244,0.0,8.0,90,0.00,,,0.00,Wunderground v.1.15,2013-06-11 04:12:00,
2013-06-10 23:18:00,64.1,61.4,29.85,WSW,245,0.0,8.0,91,0.00,,,0.00,Wunderground v.1.15,2013-06-11 04:18:00,
2013-06-10 23:22:00,64.1,61.4,29.85,WSW,245,0.0,8.0,91,0.00,,,0.00,Wunderground v.1.15,2013-06-11 04:22:00,
2013-06-10 23:27:00,63.8,61.1,29.86,WSW,245,0.0,8.0,91,0.00,,,0.00,Wunderground v.1.15,2013-06-11 04:27:00,
2013-06-10 23:34:00,63.7,61.3,29.86,WSW,245,0.0,8.0,92,0.00,,,0.00,Wunderground v.1.15,2013-06-11 04:34:00,
2013-06-10 23:39:00,63.4,61.0,29.86,WSW,245,0.0,8.0,92,0.00,,,0.00,Wunderground v.1.15,2013-06-11 04:39:00,
2013-06-10 23:45:00,63.2,60.8,29.86,WSW,245,0.0,8.0,92,0.00,,,0.00,Wunderground v.1.15,2013-06-11 04:45:00,
2013-06-10 23:52:00,63.5,61.1,29.86,WSW,245,0.0,8.0,92,0.00,,,0.00,Wunderground v.1.15,2013-06-11 04:52:00,
2013-06-10 23:57:00,63.6,61.2,29.87,WSW,245,0.0,8.0,92,0.00,,,0.00,Wunderground v.1.15,2013-06-11 04:57:00,